Time;durP1;ratioP1;P1;durP2;ratioP2;P2;SDS_P1;SDS_P2;PMS_P1;PMS_P2;Temp;Humidity;BMP_temperature;BMP_pressure;BME280_temperature;BME280_humidity;BME280_pressure;Samples;Min_cycle;Max_cycle;Signal;HPM_P1;HPM_P2
2022/09/11 00:00:09;;;;;;;;;11.20;11.20;;;;;19.50;68.18;101357.97;2105520;27;47601;-58
2022/09/11 00:01:13;;;;;;;;;13.20;13.00;;;;;19.48;68.32;101358.03;2106061;28;47537;-60
2022/09/11 00:02:15;;;;;;;;;10.60;10.60;;;;;19.47;68.15;101358.97;2107135;27;47715;-59
2022/09/11 00:03:17;;;;;;;;;11.80;11.00;;;;;19.46;68.43;101357.25;2106261;27;47567;-58
2022/09/11 00:04:17;;;;;;;;;10.00;10.00;;;;;19.46;68.17;101368.00;2096548;28;46530;-59
2022/09/11 00:05:17;;;;;;;;;11.00;10.00;;;;;19.46;68.35;101368.00;2088167;28;47032;-59
2022/09/11 00:06:21;;;;;;;;;10.25;10.25;;;;;19.45;68.30;101366.25;2095567;28;46967;-59
2022/09/11 00:07:22;;;;;;;;;11.00;10.60;;;;;19.46;68.10;101370.69;2103383;28;47663;-59
2022/09/11 00:08:22;;;;;;;;;13.75;12.25;;;;;19.47;67.89;101360.81;2105820;27;47348;-58
2022/09/11 00:09:22;;;;;;;;;12.00;12.00;;;;;19.48;68.35;101368.81;2106335;27;47428;-59
2022/09/11 00:10:23;;;;;;;;;13.25;11.75;;;;;19.47;67.85;101369.75;2105537;27;47377;-60
2022/09/11 00:11:24;;;;;;;;;10.00;10.00;;;;;19.47;68.45;101361.69;2103734;27;46448;-60
2022/09/11 00:12:24;;;;;;;;;9.00;9.00;;;;;19.47;67.76;101358.13;2103989;28;47568;-60
2022/09/11 00:13:25;;;;;;;;;10.00;10.00;;;;;19.48;68.34;101367.94;2099816;27;48005;-57
2022/09/11 00:14:27;;;;;;;;;11.25;11.25;;;;;19.49;68.45;101364.28;2101345;27;47380;-58
2022/09/11 00:15:28;;;;;;;;;10.00;10.00;;;;;19.50;68.06;101360.66;2104995;28;47540;-59
2022/09/11 00:16:34;;;;;;;;;11.00;11.00;;;;;19.49;68.00;101362.47;2104009;27;47957;-58
2022/09/11 00:17:35;;;;;;;;;11.60;11.60;;;;;19.48;68.30;101368.81;2104445;27;47401;-58
2022/09/11 00:18:35;;;;;;;;;12.75;12.50;;;;;19.48;68.30;101365.25;2100644;28;47486;-58
2022/09/11 00:19:35;;;;;;;;;11.00;11.00;;;;;19.49;68.18;101364.28;2104163;27;47780;-61
2022/09/11 00:20:36;;;;;;;;;11.00;11.00;;;;;19.47;68.14;101364.38;2103746;27;47262;-59
2022/09/11 00:21:37;;;;;;;;;13.00;11.75;;;;;19.48;68.25;101365.25;2080298;28;47404;-58
2022/09/11 00:22:38;;;;;;;;;13.25;13.25;;;;;19.47;68.20;101369.75;2080111;28;47446;-56
2022/09/11 00:23:38;;;;;;;;;11.25;11.00;;;;;19.45;68.33;101357.31;2104412;28;47192;-58
2022/09/11 00:24:40;;;;;;;;;14.50;14.50;;;;;19.45;68.06;101352.81;2103881;28;47790;-58
2022/09/11 00:25:40;;;;;;;;;11.40;11.20;;;;;19.43;68.28;101354.69;2105026;28;47487;-60
2022/09/11 00:26:41;;;;;;;;;13.75;13.75;;;;;19.42;68.17;101358.31;2103982;27;47785;-59
2022/09/11 00:27:42;;;;;;;;;11.75;11.50;;;;;19.40;68.09;101361.09;2096213;28;47358;-58
2022/09/11 00:28:43;;;;;;;;;11.75;10.25;;;;;19.40;68.47;101363.78;2094220;28;47851;-60
2022/09/11 00:29:43;;;;;;;;;14.80;13.40;;;;;19.41;68.49;101359.25;2104160;28;47701;-59
2022/09/11 00:30:44;;;;;;;;;13.50;12.00;;;;;19.41;67.87;101362.81;2103480;27;47434;-60
2022/09/11 00:31:44;;;;;;;;;11.20;10.80;;;;;19.42;68.41;101347.53;2103237;27;47460;-62
2022/09/11 00:32:45;;;;;;;;;17.50;15.75;;;;;19.42;68.50;101359.19;2090562;28;47087;-62
2022/09/11 00:33:45;;;;;;;;;13.50;11.25;;;;;19.42;68.41;101353.81;2085200;28;47373;-62
2022/09/11 00:34:46;;;;;;;;;15.75;14.50;;;;;19.42;68.12;101358.31;2092808;28;47664;-63
2022/09/11 00:35:57;;;;;;;;;11.20;10.00;;;;;19.42;68.01;101350.25;2099089;28;47269;-62
2022/09/11 00:36:57;;;;;;;;;11.40;11.40;;;;;19.43;68.33;101346.59;2101742;28;47933;-61
2022/09/11 00:37:58;;;;;;;;;10.50;10.50;;;;;19.44;68.43;101353.75;2105379;28;47381;-62
2022/09/11 00:38:59;;;;;;;;;13.50;13.50;;;;;19.45;68.42;101347.41;2101961;28;47237;-62
2022/09/11 00:39:59;;;;;;;;;12.80;12.80;;;;;19.45;68.56;101358.19;2099507;28;47904;-62
2022/09/11 00:41:02;;;;;;;;;12.00;11.00;;;;;19.46;68.53;101353.69;2086170;28;48160;-62
2022/09/11 00:42:04;;;;;;;;;14.40;13.40;;;;;19.45;68.48;101354.63;2081108;28;46158;-62
2022/09/11 00:43:08;;;;;;;;;11.40;10.00;;;;;19.45;68.25;101355.50;2095443;28;47703;-61
2022/09/11 00:44:15;;;;;;;;;10.00;9.40;;;;;19.46;68.69;101368.00;2104167;27;47955;-61
2022/09/11 00:45:21;;;;;;;;;14.80;14.00;;;;;19.48;68.52;101358.03;2095395;28;48407;-61
2022/09/11 00:46:38;;;;;;;;;14.00;11.00;;;;;19.50;68.01;101353.44;2094623;28;47402;-62
2022/09/11 00:47:39;;;;;;;;;9.80;9.40;;;;;19.52;68.30;101356.06;2102387;28;45678;-62
2022/09/11 00:48:41;;;;;;;;;13.00;12.00;;;;;19.54;68.07;101348.78;2101113;28;47831;-61
2022/09/11 00:49:45;;;;;;;;;16.40;13.40;;;;;19.54;68.07;101346.94;2098822;28;47573;-61
2022/09/11 00:50:47;;;;;;;;;12.40;12.40;;;;;19.55;68.08;101342.47;2094953;28;47443;-61
2022/09/11 00:52:10;;;;;;;;;14.00;13.00;;;;;19.56;68.03;101341.53;2104962;28;47836;-61
2022/09/11 00:53:15;;;;;;;;;12.20;12.20;;;;;19.56;67.97;101342.38;2101984;28;47400;-61
2022/09/11 00:54:19;;;;;;;;;11.00;11.00;;;;;19.56;67.96;101345.09;2099522;27;48362;-62
2022/09/11 00:55:25;;;;;;;;;11.80;11.00;;;;;19.54;68.24;101346.06;2097452;28;48138;-62
2022/09/11 00:56:30;;;;;;;;;14.20;13.60;;;;;19.50;68.29;101336.41;2099433;27;47316;-61
2022/09/11 00:57:38;;;;;;;;;13.80;13.80;;;;;19.50;68.24;101341.81;2103681;27;46153;-60
2022/09/11 00:58:43;;;;;;;;;14.60;13.80;;;;;19.47;67.79;101334.75;2069535;28;47831;-61
2022/09/11 00:59:46;;;;;;;;;16.60;15.60;;;;;19.47;68.02;101337.44;2073540;28;47424;-62
2022/09/11 01:00:48;;;;;;;;;12.20;12.20;;;;;19.46;67.83;101340.22;2101463;27;47498;-61
2022/09/11 01:01:48;;;;;;;;;12.40;12.40;;;;;19.45;68.21;101335.78;2101996;28;48340;-62
2022/09/11 01:02:50;;;;;;;;;11.75;11.75;;;;;19.45;68.26;101341.16;2104637;27;47816;-62
2022/09/11 01:03:51;;;;;;;;;12.40;12.40;;;;;19.45;68.32;101336.66;2099843;27;48315;-62
2022/09/11 01:04:53;;;;;;;;;13.75;13.75;;;;;19.45;67.98;101333.09;2084204;28;47560;-62
2022/09/11 01:05:53;;;;;;;;;12.40;12.40;;;;;19.46;68.15;101334.84;2082702;28;45255;-61
2022/09/11 01:06:56;;;;;;;;;10.25;10.25;;;;;19.46;68.23;101340.22;2102389;27;45779;-62
2022/09/11 01:07:57;;;;;;;;;14.40;14.40;;;;;19.46;67.83;101340.22;2104117;28;47615;-62
2022/09/11 01:08:58;;;;;;;;;11.25;11.25;;;;;19.44;68.14;101332.22;2098836;27;47486;-60
2022/09/11 01:09:59;;;;;;;;;11.20;11.20;;;;;19.44;68.54;101337.59;2103787;28;46881;-61
2022/09/11 01:11:22;;;;;;;;;12.25;12.25;;;;;19.43;68.40;101330.44;2102363;27;47444;-62
2022/09/11 01:12:35;;;;;;;;;16.00;15.80;;;;;19.44;68.22;101328.63;2103070;27;47295;-61
2022/09/11 01:14:00;;;;;;;;;14.20;12.20;;;;;19.44;68.02;101329.53;2106898;27;47942;-62
2022/09/11 01:15:11;;;;;;;;;14.40;14.40;;;;;19.46;68.01;101329.44;2101010;27;47779;-63
2022/09/11 01:16:23;;;;;;;;;12.00;12.00;;;;;19.47;68.22;101331.19;2102765;27;47399;-62
2022/09/11 01:17:26;;;;;;;;;12.40;12.00;;;;;19.48;68.21;101323.03;2097650;28;47565;-61
2022/09/11 01:18:33;;;;;;;;;14.40;13.00;;;;;19.48;67.95;101328.41;2099729;27;48086;-62
2022/09/11 01:19:58;;;;;;;;;12.80;12.40;;;;;19.49;67.77;101326.59;2101475;28;48284;-62
2022/09/11 01:21:17;;;;;;;;;14.40;14.40;;;;;19.48;68.25;101325.72;2100778;27;47587;-62
2022/09/11 01:22:48;;;;;;;;;15.40;13.80;;;;;19.48;68.18;101330.25;2102351;27;47558;-59
2022/09/11 01:24:18;;;;;;;;;12.40;11.60;;;;;19.44;68.38;101321.44;2091890;28;47555;-62
2022/09/11 01:25:30;;;;;;;;;14.00;13.20;;;;;19.40;68.10;101323.41;2095356;28;47965;-62
2022/09/11 01:26:38;;;;;;;;;15.40;13.60;;;;;19.38;68.16;101327.13;2075025;28;47190;-62
2022/09/11 01:27:49;;;;;;;;;15.20;14.60;;;;;19.36;68.14;101326.31;2079299;28;48386;-62
2022/09/11 01:29:06;;;;;;;;;14.60;13.80;;;;;19.33;68.33;101318.41;2102414;27;47478;-62
2022/09/11 01:30:18;;;;;;;;;14.60;14.40;;;;;19.30;68.46;101327.47;2104537;27;47686;-62
2022/09/11 01:31:24;;;;;;;;;15.60;14.40;;;;;19.27;68.25;101324.06;2100685;27;47303;-62
2022/09/11 01:32:58;;;;;;;;;14.00;12.60;;;;;19.23;68.54;101326.03;2104129;27;47556;-62
2022/09/11 01:34:13;;;;;;;;;14.80;14.00;;;;;19.19;68.74;101323.59;2104578;27;47611;-62
2022/09/11 01:35:44;;;;;;;;;16.20;16.20;;;;;19.17;68.73;101322.75;2104266;27;48620;-62
2022/09/11 01:36:58;;;;;;;;;14.80;14.80;;;;;19.13;68.73;101318.47;2068868;28;47306;-62
2022/09/11 01:38:05;;;;;;;;;13.80;13.80;;;;;19.13;69.03;101323.88;2070322;28;47032;-61
2022/09/11 01:39:06;;;;;;;;;16.40;15.20;;;;;19.13;69.06;101321.16;2069883;28;47348;-63
2022/09/11 01:40:16;;;;;;;;;14.00;14.00;;;;;19.14;69.07;101322.91;2071061;28;47413;-61
2022/09/11 01:41:26;;;;;;;;;13.00;13.00;;;;;19.16;68.93;101329.09;2073019;28;47625;-61
2022/09/11 01:42:31;;;;;;;;;13.40;13.40;;;;;19.17;69.33;101323.63;2070490;28;47535;-62
2022/09/11 01:43:39;;;;;;;;;13.20;13.20;;;;;19.19;68.84;101320.91;2070467;28;47431;-61
2022/09/11 01:45:06;;;;;;;;;14.20;14.20;;;;;19.20;68.59;101320.81;2066596;28;47400;-63
2022/09/11 01:46:07;;;;;;;;;17.00;16.00;;;;;19.22;68.83;101328.81;2037065;28;47136;-62
2022/09/11 01:47:09;;;;;;;;;16.40;14.00;;;;;19.22;68.60;101327.00;2039683;28;47717;-61
2022/09/11 01:48:15;;;;;;;;;17.40;17.20;;;;;19.23;68.64;101320.66;2045066;28;47427;-61
2022/09/11 01:49:24;;;;;;;;;18.00;16.80;;;;;19.24;68.90;101327.78;2047723;28;47646;-62
2022/09/11 01:50:29;;;;;;;;;12.50;12.50;;;;;19.26;68.36;101323.19;2038245;28;47046;-62
2022/09/11 01:51:32;;;;;;;;;10.80;10.80;;;;;19.27;68.97;101322.25;2038118;28;47894;-62
2022/09/11 01:52:40;;;;;;;;;14.40;14.40;;;;;19.28;68.71;101315.91;2045418;28;46925;-62
2022/09/11 01:53:44;;;;;;;;;15.20;14.20;;;;;19.30;68.98;101315.84;2046282;28;47419;-62
2022/09/11 01:54:53;;;;;;;;;14.40;12.40;;;;;19.31;68.46;101321.19;2044058;28;46028;-62
2022/09/11 01:56:01;;;;;;;;;12.00;11.80;;;;;19.30;68.64;101321.22;2046377;28;47924;-61
2022/09/11 01:57:12;;;;;;;;;16.40;15.00;;;;;19.29;68.56;101322.16;2044454;28;46053;-62
2022/09/11 01:58:21;;;;;;;;;15.20;15.20;;;;;19.29;68.68;101325.75;2044836;28;45864;-62
2022/09/11 01:59:29;;;;;;;;;11.80;11.80;;;;;19.28;68.71;101326.69;2044539;28;47225;-63
2022/09/11 02:00:34;;;;;;;;;15.80;15.20;;;;;19.26;68.44;101335.78;2040071;28;47340;-62
2022/09/11 02:01:37;;;;;;;;;16.20;15.40;;;;;19.20;68.31;101331.59;2046023;28;47846;-63
2022/09/11 02:02:43;;;;;;;;;15.40;13.80;;;;;19.19;68.10;101334.34;2045233;28;47688;-63
2022/09/11 02:03:52;;;;;;;;;17.60;16.60;;;;;19.18;68.52;101333.44;2045813;28;47949;-62
2022/09/11 02:05:06;;;;;;;;;14.60;14.60;;;;;19.16;68.69;101324.56;2044870;28;47999;-63
2022/09/11 02:06:14;;;;;;;;;14.00;14.00;;;;;19.16;69.11;101323.72;2044962;28;47454;-62
2022/09/11 02:07:22;;;;;;;;;16.80;15.20;;;;;19.18;68.70;101332.56;2045758;28;47854;-62
2022/09/11 02:08:35;;;;;;;;;12.20;11.20;;;;;19.19;68.70;101332.53;2044567;28;46767;-62
2022/09/11 02:09:45;;;;;;;;;13.60;13.60;;;;;19.21;68.58;101324.38;2047040;28;47786;-61
2022/09/11 02:10:53;;;;;;;;;17.40;15.20;;;;;19.23;68.48;101326.03;2044995;28;48061;-62
2022/09/11 02:11:55;;;;;;;;;16.20;16.20;;;;;19.23;68.74;101317.97;2042025;28;47643;-61
2022/09/11 02:13:18;;;;;;;;;11.60;11.60;;;;;19.27;68.64;101318.69;2044556;28;47767;-61
2022/09/11 02:14:28;;;;;;;;;13.80;13.60;;;;;19.28;68.61;101312.34;2050583;28;46707;-63
2022/09/11 02:15:37;;;;;;;;;17.00;15.00;;;;;19.28;68.59;101318.63;2070005;28;47763;-62
2022/09/11 02:16:50;;;;;;;;;15.80;15.60;;;;;19.30;68.58;101315.84;2068606;28;47786;-62
2022/09/11 02:18:00;;;;;;;;;16.40;14.40;;;;;19.28;68.82;101310.53;2066502;28;47836;-62
2022/09/11 02:19:07;;;;;;;;;13.60;12.80;;;;;19.29;68.38;101322.16;2068427;28;47212;-62
2022/09/11 02:20:09;;;;;;;;;15.40;14.40;;;;;19.28;68.76;101318.63;2069476;28;47531;-61
2022/09/11 02:21:09;;;;;;;;;16.60;16.00;;;;;19.29;68.60;101314.97;2069376;28;47362;-61
2022/09/11 02:22:10;;;;;;;;;16.25;15.75;;;;;19.29;68.38;101314.97;2069345;28;47733;-62
2022/09/11 02:23:10;;;;;;;;;15.25;14.50;;;;;19.31;68.27;101312.19;2066037;28;47523;-62
2022/09/11 02:24:11;;;;;;;;;17.75;17.75;;;;;19.30;68.43;101315.84;2101623;28;45943;-62
2022/09/11 02:25:12;;;;;;;;;13.00;13.00;;;;;19.33;68.27;101315.72;2100600;28;47747;-62
2022/09/11 02:26:15;;;;;;;;;15.80;15.40;;;;;19.33;68.43;101313.91;2103248;28;47918;-62
2022/09/11 02:27:22;;;;;;;;;15.40;14.40;;;;;19.33;68.56;101315.72;2101235;28;45792;-62
2022/09/11 02:28:22;;;;;;;;;15.60;14.80;;;;;19.34;68.14;101310.25;2100844;27;47763;-62
2022/09/11 02:29:23;;;;;;;;;15.50;15.50;;;;;19.34;68.20;101312.06;2095194;28;47543;-62
2022/09/11 02:30:23;;;;;;;;;17.75;16.75;;;;;19.33;68.31;101313.91;2094644;28;47915;-61
2022/09/11 02:31:24;;;;;;;;;17.25;17.00;;;;;19.34;68.48;101318.34;2103358;28;47592;-62
2022/09/11 02:32:26;;;;;;;;;13.00;13.00;;;;;19.33;68.04;101310.34;2101982;28;49341;-63
2022/09/11 02:33:37;;;;;;;;;17.40;16.60;;;;;19.32;68.36;101314.84;2101326;28;47406;-64
2022/09/11 02:34:41;;;;;;;;;17.00;17.00;;;;;19.34;68.41;101312.06;2102067;27;47328;-62
2022/09/11 02:35:50;;;;;;;;;16.60;14.80;;;;;19.33;68.42;101313.03;2104170;28;48741;-63
2022/09/11 02:37:12;;;;;;;;;13.00;11.40;;;;;19.31;68.11;101312.19;2100659;28;48101;-63
2022/09/11 02:38:26;;;;;;;;;15.00;15.00;;;;;19.32;68.14;101311.28;2101131;27;47630;-62
2022/09/11 02:40:04;;;;;;;;;18.60;17.80;;;;;19.32;68.50;101316.66;2100807;28;47832;-63
2022/09/11 02:41:22;;;;;;;;;14.40;13.80;;;;;19.31;68.59;101315.78;2103443;27;48095;-63
2022/09/11 02:42:34;;;;;;;;;18.20;18.20;;;;;19.30;68.19;101323.91;2100229;28;48129;-63
2022/09/11 02:44:05;;;;;;;;;15.20;14.80;;;;;19.28;68.19;101324.00;2103029;28;47566;-62
2022/09/11 02:45:11;;;;;;;;;14.80;14.80;;;;;19.24;68.64;101327.78;2101427;28;47517;-61
2022/09/11 02:46:38;;;;;;;;;18.20;18.20;;;;;19.21;68.33;101327.06;2100647;27;46756;-62
2022/09/11 02:48:13;;;;;;;;;18.20;17.20;;;;;19.20;68.74;101333.41;2102593;28;47641;-62
2022/09/11 02:49:23;;;;;;;;;17.40;17.20;;;;;19.19;68.18;101326.28;2102388;28;48106;-61
2022/09/11 02:51:00;;;;;;;;;18.20;18.00;;;;;19.15;68.31;101317.47;2097858;27;46823;-62
2022/09/11 02:52:37;;;;;;;;;16.60;16.60;;;;;19.17;68.55;101322.75;2103099;27;46921;-63
2022/09/11 02:53:48;;;;;;;;;18.40;17.20;;;;;19.16;68.40;101323.72;2099176;28;47280;-61
2022/09/11 02:55:02;;;;;;;;;14.20;13.20;;;;;19.16;68.51;101327.28;2102848;28;47747;-63
2022/09/11 02:56:41;;;;;;;;;17.60;17.60;;;;;19.20;68.47;101325.31;2092761;28;47211;-64
2022/09/11 02:57:53;;;;;;;;;16.20;16.20;;;;;19.19;68.73;101324.47;2091602;28;48444;-62
2022/09/11 02:59:04;;;;;;;;;15.20;15.20;;;;;19.18;68.35;101311.91;2093263;28;47707;-62
2022/09/11 03:00:07;;;;;;;;;17.40;16.60;;;;;19.19;68.36;101331.66;2087286;28;47606;-61
2022/09/11 03:01:08;;;;;;;;;19.20;17.20;;;;;19.16;68.22;101318.31;2093669;28;47857;-62
2022/09/11 03:02:13;;;;;;;;;17.00;16.40;;;;;19.15;68.48;101317.47;2098471;28;47553;-61
2022/09/11 03:03:14;;;;;;;;;18.80;17.20;;;;;19.15;68.56;101319.28;2100041;27;47747;-62
2022/09/11 03:04:17;;;;;;;;;16.60;15.20;;;;;19.15;68.33;101316.59;2102228;27;47958;-64
2022/09/11 03:05:17;;;;;;;;;15.60;15.00;;;;;19.15;68.47;101316.59;2102524;27;46636;-62
2022/09/11 03:06:23;;;;;;;;;15.00;15.00;;;;;19.15;68.12;101319.28;2102565;27;47555;-62
2022/09/11 03:07:24;;;;;;;;;20.40;19.00;;;;;19.14;68.55;101318.41;2103172;27;47530;-61
2022/09/11 03:08:24;;;;;;;;;16.20;14.20;;;;;19.13;68.65;101319.34;2101798;27;47746;-62
2022/09/11 03:09:25;;;;;;;;;16.00;14.75;;;;;19.13;68.32;101322.03;2100822;27;47658;-62
2022/09/11 03:10:26;;;;;;;;;16.25;16.25;;;;;19.13;68.57;101316.66;2102591;27;47561;-62
2022/09/11 03:11:26;;;;;;;;;11.40;11.40;;;;;19.14;68.17;101325.59;2095096;28;47908;-63
2022/09/11 03:12:27;;;;;;;;;14.25;13.75;;;;;19.14;68.33;101314.84;2098512;28;47690;-61
2022/09/11 03:13:27;;;;;;;;;14.50;14.50;;;;;19.14;68.66;101309.47;2102043;27;47881;-61
2022/09/11 03:14:28;;;;;;;;;20.50;20.00;;;;;19.13;68.61;101313.97;2102882;27;47474;-62
2022/09/11 03:15:28;;;;;;;;;15.50;14.00;;;;;19.15;68.86;101313.91;2104306;27;47536;-62
2022/09/11 03:16:28;;;;;;;;;19.50;18.50;;;;;19.14;68.40;101320.22;2103310;27;47644;-61
2022/09/11 03:17:29;;;;;;;;;15.25;15.25;;;;;19.13;68.66;101315.78;2100028;27;47496;-61
2022/09/11 03:18:30;;;;;;;;;15.50;15.00;;;;;19.11;68.70;101319.44;2101598;27;47080;-61
2022/09/11 03:19:30;;;;;;;;;17.20;16.20;;;;;19.11;68.35;101311.34;2103453;27;47583;-62
2022/09/11 03:20:31;;;;;;;;;17.00;17.00;;;;;19.09;68.32;101315.94;2102560;27;47501;-62
2022/09/11 03:21:33;;;;;;;;;18.25;17.75;;;;;19.09;68.72;101318.63;2101562;27;47828;-62
2022/09/11 03:22:34;;;;;;;;;16.60;16.20;;;;;19.08;68.17;101318.72;2103101;27;46001;-62
2022/09/11 03:23:34;;;;;;;;;17.25;16.50;;;;;19.08;68.13;101318.72;2077877;28;46506;-62
2022/09/11 03:24:34;;;;;;;;;14.75;14.25;;;;;19.07;68.94;101323.22;2076866;28;47489;-62
2022/09/11 03:25:35;;;;;;;;;16.50;16.50;;;;;19.07;68.39;101323.22;2098499;27;47382;-61
2022/09/11 03:26:36;;;;;;;;;16.25;16.25;;;;;19.04;68.56;101322.47;2102621;27;47418;-61
2022/09/11 03:27:38;;;;;;;;;19.25;17.75;;;;;19.02;69.12;101318.97;2102874;27;47562;-62
2022/09/11 03:28:38;;;;;;;;;17.20;15.00;;;;;18.98;68.92;101312.88;2102873;27;47171;-62
2022/09/11 03:29:39;;;;;;;;;16.00;16.00;;;;;18.99;68.36;101314.63;2104263;27;47789;-62
2022/09/11 03:30:42;;;;;;;;;17.00;15.75;;;;;18.98;68.41;101314.72;2092969;28;47157;-63
2022/09/11 03:31:43;;;;;;;;;18.40;16.20;;;;;19.00;68.60;101312.81;2094580;28;46840;-62
2022/09/11 03:32:43;;;;;;;;;13.75;12.75;;;;;19.00;68.69;101315.50;2101960;27;47324;-61
2022/09/11 03:33:43;;;;;;;;;16.75;15.50;;;;;19.01;68.70;101314.56;2101096;27;47439;-61
2022/09/11 03:34:46;;;;;;;;;13.75;13.75;;;;;19.02;68.68;101314.47;2102779;27;47937;-62
2022/09/11 03:35:46;;;;;;;;;16.80;16.00;;;;;19.04;68.80;101311.72;2103133;27;47879;-62
2022/09/11 03:36:47;;;;;;;;;16.25;16.25;;;;;19.05;68.64;101316.13;2101899;27;45878;-62
2022/09/11 03:37:48;;;;;;;;;17.50;15.50;;;;;19.06;68.41;101316.09;2093794;28;47667;-63
2022/09/11 03:38:48;;;;;;;;;18.25;18.25;;;;;19.05;68.43;101314.31;2089355;28;47582;-62
2022/09/11 03:39:48;;;;;;;;;15.00;15.00;;;;;19.06;68.42;101313.41;2104034;27;47460;-62
2022/09/11 03:40:49;;;;;;;;;17.00;17.00;;;;;19.04;68.38;101317.97;2099986;27;47384;-62
2022/09/11 03:41:50;;;;;;;;;18.50;17.75;;;;;19.02;68.44;101317.16;2104044;27;47645;-61
2022/09/11 03:42:50;;;;;;;;;17.50;17.50;;;;;19.01;68.57;101320.81;2094554;28;47624;-62
2022/09/11 03:43:51;;;;;;;;;17.25;17.25;;;;;19.00;68.74;101313.69;2094536;28;48049;-61
2022/09/11 03:44:51;;;;;;;;;15.50;14.25;;;;;19.01;68.57;101317.25;2100363;27;46674;-63
2022/09/11 03:45:52;;;;;;;;;16.00;14.00;;;;;19.00;68.62;101313.69;2095126;28;47236;-61
2022/09/11 03:46:52;;;;;;;;;15.00;14.75;;;;;19.02;68.46;101314.47;2093523;28;47285;-62
2022/09/11 03:47:52;;;;;;;;;14.75;14.50;;;;;19.03;68.79;101318.91;2105601;27;47251;-62
2022/09/11 03:48:53;;;;;;;;;16.50;16.50;;;;;19.03;68.64;101312.66;2103442;27;47910;-62
2022/09/11 03:49:54;;;;;;;;;15.75;14.75;;;;;19.04;68.78;101311.72;2102646;27;47360;-62
2022/09/11 03:50:55;;;;;;;;;19.00;17.60;;;;;19.05;68.54;101319.69;2099633;27;47958;-61
2022/09/11 03:51:55;;;;;;;;;18.25;18.00;;;;;19.04;68.49;101315.28;2105328;27;47489;-61
2022/09/11 03:52:57;;;;;;;;;17.75;16.75;;;;;19.04;68.53;101315.28;2103006;27;47571;-62
2022/09/11 03:53:59;;;;;;;;;18.40;17.80;;;;;19.05;68.40;101317.00;2099294;27;46913;-61
2022/09/11 03:55:00;;;;;;;;;16.20;16.20;;;;;19.04;68.31;101315.28;2093124;28;47690;-62
2022/09/11 03:56:02;;;;;;;;;20.00;18.25;;;;;19.04;68.19;101320.66;2096236;28;47652;-61
2022/09/11 03:57:03;;;;;;;;;19.00;19.00;;;;;19.04;68.47;101319.78;2094746;28;47597;-62
2022/09/11 03:58:03;;;;;;;;;18.00;16.50;;;;;19.04;68.62;101314.41;2091403;28;47154;-62
2022/09/11 03:59:04;;;;;;;;;19.75;18.25;;;;;19.04;68.75;101314.41;2100502;27;46611;-61
2022/09/11 04:00:05;;;;;;;;;18.00;18.00;;;;;19.05;68.56;101317.00;2103743;27;47810;-61
2022/09/11 04:01:11;;;;;;;;;17.40;17.40;;;;;19.04;68.40;101309.88;2100854;27;47958;-62
2022/09/11 04:02:11;;;;;;;;;18.80;18.60;;;;;19.03;68.50;101313.53;2107066;27;47904;-61
2022/09/11 04:03:14;;;;;;;;;19.75;19.50;;;;;19.02;68.01;101317.16;2105002;27;47083;-62
2022/09/11 04:04:14;;;;;;;;;20.80;18.40;;;;;19.00;68.22;101311.00;2102624;27;47483;-61
2022/09/11 04:05:15;;;;;;;;;18.50;18.00;;;;;19.00;68.33;101310.13;2104682;27;47814;-61
2022/09/11 04:06:16;;;;;;;;;19.75;18.00;;;;;19.01;68.45;101310.03;2104106;27;47447;-62
2022/09/11 04:07:16;;;;;;;;;20.25;19.25;;;;;19.01;68.28;101309.16;2104569;27;47526;-62
2022/09/11 04:08:16;;;;;;;;;16.50;16.50;;;;;19.01;68.85;101312.72;2103179;27;47717;-62
2022/09/11 04:09:17;;;;;;;;;16.50;16.50;;;;;19.02;68.30;101311.78;2099862;27;47333;-62
2022/09/11 04:10:18;;;;;;;;;17.00;17.00;;;;;19.03;68.01;101309.97;2101692;27;48448;-62
2022/09/11 04:11:19;;;;;;;;;18.40;17.20;;;;;19.03;68.63;101310.84;2104630;27;46864;-61
2022/09/11 04:12:19;;;;;;;;;17.75;16.75;;;;;19.03;68.10;101313.53;2103465;27;46672;-62
2022/09/11 04:13:20;;;;;;;;;18.75;18.75;;;;;19.03;68.43;101305.47;2104920;27;47615;-61
2022/09/11 04:14:21;;;;;;;;;20.75;19.25;;;;;19.02;68.41;101305.53;2084689;28;46081;-61
2022/09/11 04:15:21;;;;;;;;;18.80;17.00;;;;;19.00;68.33;101302.06;2078952;28;47964;-61
2022/09/11 04:16:22;;;;;;;;;4.00;4.00;;;;;19.01;68.44;101309.16;2095090;28;48235;-61
2022/09/11 04:17:23;;;;;;;;;18.75;18.75;;;;;18.98;68.26;101310.19;2100645;28;47371;-62
2022/09/11 04:18:23;;;;;;;;;16.40;15.80;;;;;18.98;68.49;101312.88;2097930;27;47566;-62
2022/09/11 04:19:24;;;;;;;;;19.50;18.00;;;;;18.98;68.53;101312.88;2104294;27;47346;-61
2022/09/11 04:20:26;;;;;;;;;18.00;16.00;;;;;18.97;68.41;101311.16;2104179;27;47694;-63
2022/09/11 04:21:27;;;;;;;;;15.60;15.60;;;;;18.96;68.52;101312.09;2105084;27;47691;-62
2022/09/11 04:22:27;;;;;;;;;18.80;18.80;;;;;18.97;68.01;101312.97;2103749;27;47982;-62
2022/09/11 04:23:28;;;;;;;;;16.50;16.50;;;;;18.96;68.53;101311.22;2098350;27;47639;-62
2022/09/11 04:24:28;;;;;;;;;21.00;18.50;;;;;18.95;68.45;101315.72;2098449;28;47430;-62
2022/09/11 04:25:30;;;;;;;;;20.25;19.25;;;;;18.95;68.60;101318.41;2105214;28;47568;-63
2022/09/11 04:26:31;;;;;;;;;17.40;17.40;;;;;18.94;68.51;101322.06;2103922;27;47467;-62
2022/09/11 04:27:32;;;;;;;;;17.20;17.20;;;;;18.93;68.55;101314.94;2100546;28;48332;-62
2022/09/11 04:28:32;;;;;;;;;20.75;18.00;;;;;18.94;68.57;101318.50;2077503;28;48093;-61
2022/09/11 04:29:33;;;;;;;;;17.50;17.00;;;;;18.94;68.59;101319.38;2078415;28;47753;-61
2022/09/11 04:30:37;;;;;;;;;20.00;19.50;;;;;18.94;68.33;101324.75;2103712;27;47477;-61
2022/09/11 04:31:40;;;;;;;;;18.20;18.20;;;;;18.93;68.17;101314.94;2104284;28;47855;-61
2022/09/11 04:32:40;;;;;;;;;20.80;20.80;;;;;18.93;68.29;101322.09;2091318;28;47765;-63
2022/09/11 04:33:41;;;;;;;;;14.00;13.50;;;;;18.92;68.23;101321.22;2095643;28;47300;-61
2022/09/11 04:34:41;;;;;;;;;18.75;18.75;;;;;18.92;68.57;101328.41;2104114;27;48085;-61
2022/09/11 04:35:42;;;;;;;;;19.25;19.25;;;;;18.91;68.48;101332.94;2101053;28;47523;-60
2022/09/11 04:36:42;;;;;;;;;17.50;14.25;;;;;18.90;68.45;101325.81;2103255;27;46360;-61
2022/09/11 04:37:42;;;;;;;;;18.00;17.00;;;;;18.89;68.59;101317.81;2098085;28;47860;-61
2022/09/11 04:38:44;;;;;;;;;19.25;18.00;;;;;18.91;68.48;101319.47;2100631;27;46992;-61
2022/09/11 04:39:45;;;;;;;;;18.00;17.40;;;;;18.90;68.39;101323.13;2102349;27;47499;-61
2022/09/11 04:40:46;;;;;;;;;18.80;18.40;;;;;18.90;68.58;101323.13;2094938;28;47674;-61
2022/09/11 04:41:47;;;;;;;;;17.00;16.00;;;;;18.91;68.51;101321.31;2099698;28;47897;-61
2022/09/11 04:42:48;;;;;;;;;22.40;20.00;;;;;18.91;68.68;101324.88;2085167;28;47222;-61
2022/09/11 04:43:52;;;;;;;;;18.75;18.50;;;;;18.90;68.64;101328.50;2087053;28;47729;-62
2022/09/11 04:44:53;;;;;;;;;19.00;19.00;;;;;18.89;68.21;101329.44;2101750;27;46589;-61
2022/09/11 04:46:05;;;;;;;;;20.25;20.25;;;;;18.89;68.66;101328.56;2104947;28;47902;-61
2022/09/11 04:47:06;;;;;;;;;23.60;21.80;;;;;18.87;68.59;101323.28;2099661;28;49844;-62
2022/09/11 04:48:07;;;;;;;;;23.00;22.20;;;;;18.87;68.33;101325.09;2092482;28;46199;-61
2022/09/11 04:49:09;;;;;;;;;21.00;19.50;;;;;18.87;68.23;101333.16;2088750;28;46411;-62
2022/09/11 04:50:09;;;;;;;;;22.00;21.20;;;;;18.86;68.58;101329.59;2098647;28;47505;-62
2022/09/11 04:51:24;;;;;;;;;20.75;20.75;;;;;18.87;68.81;101328.66;2108930;27;47506;-60
2022/09/11 04:52:24;;;;;;;;;20.80;20.40;;;;;18.86;68.61;101326.03;2099013;28;47514;-62
2022/09/11 04:53:24;;;;;;;;;19.00;19.00;;;;;18.86;68.55;101332.28;2105152;28;47320;-62
2022/09/11 04:54:25;;;;;;;;;19.00;19.00;;;;;18.87;68.51;101328.66;2104970;28;48304;-61
2022/09/11 04:55:25;;;;;;;;;20.00;19.75;;;;;18.88;68.08;101329.53;2112363;27;47790;-62